Time;durP1;ratioP1;P1;durP2;ratioP2;P2;SDS_P1;SDS_P2;PMS_P1;PMS_P2;Temp;Humidity;BMP_temperature;BMP_pressure;BME280_temperature;BME280_humidity;BME280_pressure;Samples;Min_cycle;Max_cycle;Signal;HPM_P1;HPM_P2
2021/08/09 00:02:06;;;;;;;10.63;2.85;;;;;;;;;;4985666;28;20036;-70
2021/08/09 00:04:35;;;;;;;18.60;3.53;;;;;;;;;;4994842;28;20106;-70
2021/08/09 00:07:03;;;;;;;13.65;2.85;;;;;;;;;;4988972;28;20033;-71
2021/08/09 00:09:30;;;;;;;10.70;3.42;;;;;;;;;;4989929;28;20034;-71
2021/08/09 00:11:58;;;;;;;12.93;3.17;;;;;;;;;;5005889;28;20117;-70
2021/08/09 00:14:25;;;;;;;18.52;3.90;;;;;;;;;;4989269;28;20018;-70
2021/08/09 00:16:52;;;;;;;16.90;3.97;;;;;;;;;;4990295;28;20054;-70
2021/08/09 00:19:19;;;;;;;15.00;2.88;;;;;;;;;;4987639;28;20122;-70
2021/08/09 00:21:46;;;;;;;8.93;2.40;;;;;;;;;;4981594;28;20027;-70
2021/08/09 00:24:13;;;;;;;13.10;3.35;;;;;;;;;;4989683;28;20038;-71
2021/08/09 00:26:41;;;;;;;9.07;2.67;;;;;;;;;;4988218;28;20085;-70
2021/08/09 00:29:08;;;;;;;26.38;4.00;;;;;;;;;;5003504;28;20125;-69
2021/08/09 00:31:35;;;;;;;16.52;3.35;;;;;;;;;;4989241;28;20023;-70
2021/08/09 00:34:02;;;;;;;14.20;3.80;;;;;;;;;;4990569;28;20036;-69
2021/08/09 00:36:29;;;;;;;11.10;2.65;;;;;;;;;;4991366;28;20491;-70
2021/08/09 00:38:57;;;;;;;16.30;2.60;;;;;;;;;;4990434;28;20439;-70
2021/08/09 00:41:24;;;;;;;10.30;2.40;;;;;;;;;;4990580;28;20054;-69
2021/08/09 00:43:51;;;;;;;13.05;2.72;;;;;;;;;;4991023;28;20026;-71
2021/08/09 00:46:18;;;;;;;12.40;3.38;;;;;;;;;;4991716;28;20411;-71
2021/08/09 00:48:45;;;;;;;15.50;3.55;;;;;;;;;;4993264;28;20100;-68
2021/08/09 00:51:12;;;;;;;14.00;3.88;;;;;;;;;;4991226;28;20147;-68
2021/08/09 00:53:40;;;;;;;11.95;3.28;;;;;;;;;;4987484;28;20072;-69
2021/08/09 00:56:07;;;;;;;10.70;2.60;;;;;;;;;;4991872;28;20084;-69
2021/08/09 00:58:35;;;;;;;11.23;2.75;;;;;;;;;;5006457;28;20406;-66
2021/08/09 01:01:02;;;;;;;14.48;4.05;;;;;;;;;;4989473;28;20395;-66
2021/08/09 01:03:29;;;;;;;7.82;1.75;;;;;;;;;;4989245;28;20026;-67
2021/08/09 01:05:56;;;;;;;13.60;3.10;;;;;;;;;;4991503;28;20030;-67
2021/08/09 01:08:41;;;;;;;12.88;2.95;;;;;;;;;;4992434;28;20041;-67
2021/08/09 01:11:17;;;;;;;11.30;2.80;;;;;;;;;;4992384;28;20030;-67
2021/08/09 01:13:50;;;;;;;11.75;2.47;;;;;;;;;;4987642;28;20177;-66
2021/08/09 01:16:18;;;;;;;11.98;2.05;;;;;;;;;;4993227;28;20026;-67
2021/08/09 01:18:46;;;;;;;11.27;2.70;;;;;;;;;;4993306;28;20148;-67
2021/08/09 01:21:14;;;;;;;14.82;3.25;;;;;;;;;;4992850;28;20026;-67
2021/08/09 01:23:52;;;;;;;12.05;2.40;;;;;;;;;;4981626;28;20102;-67
2021/08/09 01:26:23;;;;;;;11.30;1.98;;;;;;;;;;4982212;28;20030;-67
2021/08/09 01:28:51;;;;;;;13.80;2.28;;;;;;;;;;4973669;28;20023;-67
2021/08/09 01:31:18;;;;;;;8.27;1.60;;;;;;;;;;4973723;28;20117;-67
2021/08/09 01:33:46;;;;;;;8.98;1.85;;;;;;;;;;4985899;28;20030;-68
2021/08/09 01:36:13;;;;;;;9.07;1.65;;;;;;;;;;4991247;28;20022;-67
2021/08/09 01:38:42;;;;;;;12.25;2.00;;;;;;;;;;4990682;28;20034;-67
2021/08/09 01:41:10;;;;;;;8.48;1.50;;;;;;;;;;4986254;28;20034;-68
2021/08/09 01:43:38;;;;;;;13.18;1.60;;;;;;;;;;4992598;28;20022;-67
2021/08/09 01:46:05;;;;;;;8.65;2.08;;;;;;;;;;4990992;28;20038;-66
2021/08/09 01:48:32;;;;;;;9.65;1.35;;;;;;;;;;4990628;28;20039;-67
2021/08/09 01:51:00;;;;;;;8.38;1.13;;;;;;;;;;4990948;28;20033;-67
2021/08/09 01:53:27;;;;;;;6.70;1.00;;;;;;;;;;4991232;28;20077;-68
2021/08/09 01:55:54;;;;;;;10.68;1.17;;;;;;;;;;4992494;28;20035;-67
2021/08/09 01:58:22;;;;;;;5.85;1.20;;;;;;;;;;4988231;28;20035;-68
2021/08/09 02:00:49;;;;;;;8.38;1.27;;;;;;;;;;4987386;28;20022;-67
2021/08/09 02:03:16;;;;;;;9.77;1.92;;;;;;;;;;4987881;28;20085;-67
2021/08/09 02:05:44;;;;;;;8.20;1.30;;;;;;;;;;5005586;28;20038;-67
2021/08/09 02:08:12;;;;;;;6.30;1.13;;;;;;;;;;5004646;28;20030;-68
2021/08/09 02:10:39;;;;;;;8.60;1.08;;;;;;;;;;4991962;28;20387;-67
2021/08/09 02:13:26;;;;;;;6.85;0.93;;;;;;;;;;4991087;28;20022;-67
2021/08/09 02:15:59;;;;;;;8.88;1.00;;;;;;;;;;4987045;28;20025;-67
2021/08/09 02:18:35;;;;;;;8.10;1.43;;;;;;;;;;4987582;28;20077;-68
2021/08/09 02:21:04;;;;;;;10.05;1.05;;;;;;;;;;4983487;28;20110;-68
2021/08/09 02:23:52;;;;;;;14.20;1.52;;;;;;;;;;4989328;28;20027;-68
2021/08/09 02:26:29;;;;;;;6.50;1.60;;;;;;;;;;4988456;28;20031;-68
2021/08/09 02:29:01;;;;;;;12.93;1.63;;;;;;;;;;4990666;28;20026;-67
2021/08/09 02:31:30;;;;;;;10.25;1.42;;;;;;;;;;4989464;28;20558;-69
2021/08/09 02:33:58;;;;;;;11.20;1.33;;;;;;;;;;4987005;28;20125;-69
2021/08/09 02:36:25;;;;;;;5.68;0.95;;;;;;;;;;4980209;28;20023;-68
2021/08/09 02:38:52;;;;;;;6.35;1.23;;;;;;;;;;4989965;28;20027;-68
2021/08/09 02:41:20;;;;;;;6.97;1.27;;;;;;;;;;4988820;28;20030;-67
2021/08/09 02:43:47;;;;;;;6.82;1.52;;;;;;;;;;4987303;28;20510;-67
2021/08/09 02:46:14;;;;;;;5.47;1.23;;;;;;;;;;5006550;28;20041;-67
2021/08/09 02:48:42;;;;;;;8.45;1.40;;;;;;;;;;4991569;28;20450;-68
2021/08/09 02:51:11;;;;;;;8.63;1.10;;;;;;;;;;4990829;28;20030;-68
2021/08/09 02:53:40;;;;;;;6.20;1.02;;;;;;;;;;4991044;28;20129;-68
2021/08/09 02:56:07;;;;;;;6.68;1.40;;;;;;;;;;4993818;28;20053;-67
2021/08/09 02:58:35;;;;;;;7.35;0.95;;;;;;;;;;4996685;28;20103;-68
2021/08/09 03:01:02;;;;;;;5.72;1.52;;;;;;;;;;4989857;28;20514;-68
2021/08/09 03:03:30;;;;;;;6.90;0.82;;;;;;;;;;4991143;28;20022;-68
2021/08/09 03:05:58;;;;;;;5.80;0.93;;;;;;;;;;4993099;28;20098;-69
2021/08/09 03:08:26;;;;;;;10.35;1.35;;;;;;;;;;4979320;28;20399;-67
2021/08/09 03:10:53;;;;;;;8.80;1.70;;;;;;;;;;4991192;28;20022;-67
2021/08/09 03:13:21;;;;;;;8.95;1.35;;;;;;;;;;4989153;28;20034;-70
2021/08/09 03:15:49;;;;;;;4.93;1.50;;;;;;;;;;4986854;28;20503;-68
2021/08/09 03:18:16;;;;;;;6.82;1.42;;;;;;;;;;4984187;28;20038;-68
2021/08/09 03:20:43;;;;;;;9.63;1.27;;;;;;;;;;4984955;28;20027;-69
2021/08/09 03:23:11;;;;;;;6.40;1.23;;;;;;;;;;4985850;28;20034;-68
2021/08/09 03:25:38;;;;;;;4.13;0.80;;;;;;;;;;5002297;28;20376;-69
2021/08/09 03:28:08;;;;;;;6.88;1.27;;;;;;;;;;4991055;28;20037;-69
2021/08/09 03:30:35;;;;;;;6.55;1.20;;;;;;;;;;4986730;28;20023;-69
2021/08/09 03:33:02;;;;;;;6.25;0.90;;;;;;;;;;4987154;28;20554;-67
2021/08/09 03:35:29;;;;;;;5.68;1.20;;;;;;;;;;5001393;28;20034;-68
2021/08/09 03:37:57;;;;;;;8.13;0.90;;;;;;;;;;4988592;28;20606;-67
2021/08/09 03:40:24;;;;;;;5.45;1.52;;;;;;;;;;4990961;28;20090;-68
2021/08/09 03:42:53;;;;;;;8.75;1.45;;;;;;;;;;4989625;28;20023;-67
2021/08/09 03:45:20;;;;;;;8.57;2.20;;;;;;;;;;4996927;28;20070;-67
2021/08/09 03:47:47;;;;;;;8.30;1.48;;;;;;;;;;4996092;28;20065;-67
2021/08/09 03:50:14;;;;;;;9.07;1.45;;;;;;;;;;5001264;28;20038;-67
2021/08/09 03:52:48;;;;;;;12.77;1.85;;;;;;;;;;5002523;28;20082;-66
2021/08/09 03:55:16;;;;;;;9.63;1.02;;;;;;;;;;5005371;28;20022;-67
2021/08/09 03:57:43;;;;;;;8.32;1.15;;;;;;;;;;5002020;28;20501;-67
2021/08/09 04:00:12;;;;;;;11.75;1.10;;;;;;;;;;4999628;28;20360;-66
2021/08/09 04:02:39;;;;;;;10.23;1.52;;;;;;;;;;4998082;28;20019;-66
2021/08/09 04:05:08;;;;;;;9.27;1.85;;;;;;;;;;4998546;28;20531;-67
2021/08/09 04:07:37;;;;;;;11.02;1.83;;;;;;;;;;5000714;28;20029;-67
2021/08/09 04:10:05;;;;;;;8.50;1.65;;;;;;;;;;5003395;28;20029;-67
2021/08/09 04:12:32;;;;;;;9.07;2.58;;;;;;;;;;4996831;28;20497;-66
2021/08/09 04:14:59;;;;;;;19.50;2.72;;;;;;;;;;4999232;28;20033;-66
2021/08/09 04:17:26;;;;;;;11.70;1.88;;;;;;;;;;4996424;28;20502;-66
2021/08/09 04:19:54;;;;;;;9.35;1.80;;;;;;;;;;4996128;28;20027;-67
2021/08/09 04:22:21;;;;;;;7.05;1.30;;;;;;;;;;4992407;28;20046;-68
2021/08/09 04:24:48;;;;;;;7.90;1.35;;;;;;;;;;4997428;28;20023;-67
2021/08/09 04:27:15;;;;;;;13.48;1.65;;;;;;;;;;4992543;28;20026;-67
2021/08/09 04:29:42;;;;;;;12.02;1.50;;;;;;;;;;4995882;28;20364;-67
2021/08/09 04:32:13;;;;;;;8.68;1.25;;;;;;;;;;4992016;28;20156;-68
2021/08/09 04:34:40;;;;;;;13.38;1.70;;;;;;;;;;4997068;28;20026;-68
2021/08/09 04:37:08;;;;;;;15.90;1.60;;;;;;;;;;4996066;28;20034;-68
2021/08/09 04:39:35;;;;;;;9.88;1.52;;;;;;;;;;4994616;28;20015;-68
2021/08/09 04:42:02;;;;;;;10.95;1.80;;;;;;;;;;5007170;28;20436;-68
2021/08/09 04:44:29;;;;;;;15.95;2.95;;;;;;;;;;4991241;28;20037;-69
2021/08/09 04:46:57;;;;;;;11.75;1.60;;;;;;;;;;4987278;28;20031;-69
2021/08/09 04:49:27;;;;;;;10.75;1.77;;;;;;;;;;4991951;28;20029;-69
2021/08/09 04:51:55;;;;;;;9.73;1.80;;;;;;;;;;4990983;28;20031;-69
2021/08/09 04:54:24;;;;;;;15.30;3.25;;;;;;;;;;4982332;28;20050;-69
2021/08/09 04:56:52;;;;;;;10.90;1.65;;;;;;;;;;4989920;28;20113;-69
2021/08/09 04:59:19;;;;;;;11.27;1.75;;;;;;;;;;4995588;28;20024;-69
2021/08/09 05:01:46;;;;;;;12.68;2.38;;;;;;;;;;4990580;28;20023;-69
2021/08/09 05:04:13;;;;;;;8.57;1.50;;;;;;;;;;4990907;28;20026;-68
2021/08/09 05:06:40;;;;;;;12.38;1.92;;;;;;;;;;4992800;28;20060;-68
2021/08/09 05:09:07;;;;;;;10.57;1.48;;;;;;;;;;4993477;28;20042;-68
2021/08/09 05:11:34;;;;;;;14.93;1.40;;;;;;;;;;4992722;28;20038;-68
2021/08/09 05:14:01;;;;;;;6.63;2.15;;;;;;;;;;4990932;28;20102;-68
2021/08/09 05:16:32;;;;;;;11.05;1.42;;;;;;;;;;4995464;28;20515;-69
2021/08/09 05:19:02;;;;;;;9.80;2.08;;;;;;;;;;4995446;28;20015;-68
2021/08/09 05:21:33;;;;;;;11.82;1.63;;;;;;;;;;5014887;28;20038;-69
2021/08/09 05:24:01;;;;;;;16.30;1.58;;;;;;;;;;4998501;28;20073;-68
2021/08/09 05:26:28;;;;;;;12.25;1.85;;;;;;;;;;4998062;28;20057;-68
2021/08/09 05:28:55;;;;;;;9.35;1.10;;;;;;;;;;4991482;28;20023;-68
2021/08/09 05:31:22;;;;;;;13.00;1.52;;;;;;;;;;4992253;28;20037;-69
2021/08/09 05:33:49;;;;;;;8.32;1.45;;;;;;;;;;5003614;28;20034;-68
2021/08/09 05:36:16;;;;;;;9.60;1.35;;;;;;;;;;5003874;28;20049;-68
2021/08/09 05:38:43;;;;;;;11.88;1.42;;;;;;;;;;5011074;28;20039;-67
2021/08/09 05:41:10;;;;;;;9.20;1.67;;;;;;;;;;5002010;28;20023;-68
2021/08/09 05:43:38;;;;;;;10.65;1.88;;;;;;;;;;5005721;28;20048;-67
2021/08/09 05:46:05;;;;;;;10.75;1.75;;;;;;;;;;5005033;28;20406;-67
2021/08/09 05:48:33;;;;;;;7.97;1.30;;;;;;;;;;4999367;28;20050;-68
2021/08/09 05:51:00;;;;;;;10.43;2.00;;;;;;;;;;4997377;28;20065;-67
2021/08/09 05:53:28;;;;;;;13.90;2.50;;;;;;;;;;5001155;28;20051;-69
2021/08/09 05:55:55;;;;;;;11.13;1.58;;;;;;;;;;5001881;28;20368;-67
2021/08/09 05:58:22;;;;;;;9.98;1.20;;;;;;;;;;4999680;28;20065;-68
2021/08/09 06:00:49;;;;;;;9.55;1.55;;;;;;;;;;5002419;28;20065;-68
2021/08/09 06:03:22;;;;;;;6.80;1.30;;;;;;;;;;5000206;28;20745;-68
2021/08/09 06:05:52;;;;;;;14.40;1.67;;;;;;;;;;4998444;28;20041;-67
2021/08/09 06:08:19;;;;;;;10.25;1.38;;;;;;;;;;4992618;28;20066;-68
2021/08/09 06:10:46;;;;;;;7.97;1.27;;;;;;;;;;4982406;28;20110;-67
2021/08/09 06:13:14;;;;;;;10.00;1.80;;;;;;;;;;4996455;28;20044;-68
2021/08/09 06:15:41;;;;;;;10.52;1.50;;;;;;;;;;4997844;28;20164;-68
2021/08/09 06:18:08;;;;;;;12.07;1.85;;;;;;;;;;4998131;28;20113;-67
2021/08/09 06:20:38;;;;;;;12.15;1.60;;;;;;;;;;4998992;28;20069;-68
2021/08/09 06:23:05;;;;;;;11.52;1.60;;;;;;;;;;5001933;28;20098;-68
2021/08/09 06:25:32;;;;;;;12.57;1.30;;;;;;;;;;4997504;28;20033;-69
2021/08/09 06:28:00;;;;;;;11.00;2.20;;;;;;;;;;5012389;28;20040;-68
2021/08/09 06:30:27;;;;;;;9.93;1.65;;;;;;;;;;4994062;28;20078;-68
2021/08/09 06:32:54;;;;;;;10.75;1.77;;;;;;;;;;4990487;28;20091;-67
2021/08/09 06:35:21;;;;;;;7.15;1.70;;;;;;;;;;4994051;28;20435;-69
2021/08/09 06:37:48;;;;;;;13.48;2.55;;;;;;;;;;4999003;28;20074;-69
2021/08/09 06:40:15;;;;;;;10.95;1.33;;;;;;;;;;5002165;28;20038;-68
2021/08/09 06:42:43;;;;;;;6.90;1.80;;;;;;;;;;5001060;28;20411;-67
2021/08/09 06:45:10;;;;;;;11.68;1.50;;;;;;;;;;4995074;28;20018;-68
2021/08/09 06:47:37;;;;;;;9.07;1.50;;;;;;;;;;4992395;28;20030;-68
2021/08/09 06:50:05;;;;;;;15.43;2.15;;;;;;;;;;5015793;28;20022;-68
2021/08/09 06:52:35;;;;;;;11.82;2.10;;;;;;;;;;4999074;28;20038;-68
2021/08/09 06:55:02;;;;;;;16.90;4.88;;;;;;;;;;4999108;28;20042;-68
2021/08/09 06:57:29;;;;;;;9.23;2.63;;;;;;;;;;4995826;28;20054;-69
2021/08/09 06:59:56;;;;;;;15.15;1.88;;;;;;;;;;4997196;28;20034;-69
2021/08/09 07:02:27;;;;;;;12.23;2.47;;;;;;;;;;4996326;28;20034;-68
2021/08/09 07:04:54;;;;;;;6.55;1.30;;;;;;;;;;4993116;28;20491;-67
2021/08/09 07:07:22;;;;;;;9.25;1.80;;;;;;;;;;4986624;28;20030;-67
2021/08/09 07:09:49;;;;;;;8.90;1.83;;;;;;;;;;4990132;28;20030;-69
2021/08/09 07:12:16;;;;;;;10.55;1.75;;;;;;;;;;4991458;28;20476;-68
2021/08/09 07:14:43;;;;;;;9.35;1.77;;;;;;;;;;5003097;28;20034;-69
2021/08/09 07:17:10;;;;;;;8.88;2.55;;;;;;;;;;4992345;28;20035;-69
2021/08/09 07:19:39;;;;;;;11.45;2.00;;;;;;;;;;4988604;28;20077;-70
2021/08/09 07:22:07;;;;;;;9.32;1.20;;;;;;;;;;4988435;28;20065;-71
2021/08/09 07:24:36;;;;;;;18.25;2.40;;;;;;;;;;5000906;28;20561;-70
2021/08/09 07:27:03;;;;;;;7.93;1.60;;;;;;;;;;4985218;28;20053;-71
2021/08/09 07:29:31;;;;;;;10.35;2.22;;;;;;;;;;4990855;28;20034;-72
2021/08/09 07:31:59;;;;;;;9.50;1.25;;;;;;;;;;4981916;28;20019;-72
2021/08/09 07:34:26;;;;;;;13.73;2.25;;;;;;;;;;4995555;28;20121;-70
2021/08/09 07:36:53;;;;;;;13.52;1.40;;;;;;;;;;5003370;28;20057;-70
2021/08/09 07:39:20;;;;;;;8.57;1.27;;;;;;;;;;4992673;28;20035;-70
2021/08/09 07:41:47;;;;;;;9.40;1.70;;;;;;;;;;4991488;28;20026;-70
2021/08/09 07:44:14;;;;;;;8.82;1.38;;;;;;;;;;5013085;28;20038;-71
2021/08/09 07:46:41;;;;;;;11.35;1.25;;;;;;;;;;4994306;28;20038;-70
2021/08/09 07:49:08;;;;;;;13.13;1.90;;;;;;;;;;5016087;28;20033;-71
2021/08/09 07:51:36;;;;;;;10.25;2.40;;;;;;;;;;4994146;28;20022;-70
2021/08/09 07:54:03;;;;;;;11.23;1.85;;;;;;;;;;5010728;28;20454;-69
2021/08/09 07:56:30;;;;;;;12.77;2.35;;;;;;;;;;4993270;28;20080;-71
2021/08/09 07:58:57;;;;;;;8.65;1.50;;;;;;;;;;4994834;28;20077;-70
2021/08/09 08:01:24;;;;;;;12.40;2.35;;;;;;;;;;4993906;28;20166;-70
2021/08/09 08:03:51;;;;;;;13.18;2.35;;;;;;;;;;5006227;28;20676;-70
2021/08/09 08:06:18;;;;;;;12.75;2.13;;;;;;;;;;4994214;28;20030;-71
2021/08/09 08:08:46;;;;;;;11.45;2.03;;;;;;;;;;5008031;28;20022;-71
2021/08/09 08:11:13;;;;;;;11.77;1.77;;;;;;;;;;4988817;28;20022;-71
2021/08/09 08:13:40;;;;;;;15.55;2.33;;;;;;;;;;5012315;28;20092;-70
2021/08/09 08:16:07;;;;;;;15.48;2.05;;;;;;;;;;4992909;28;20039;-71
2021/08/09 08:18:34;;;;;;;11.90;1.85;;;;;;;;;;4993672;28;20141;-70
2021/08/09 08:21:01;;;;;;;9.00;1.88;;;;;;;;;;4993272;28;20117;-71
2021/08/09 08:23:29;;;;;;;12.95;2.83;;;;;;;;;;4993418;28;20050;-70
2021/08/09 08:25:56;;;;;;;13.23;2.22;;;;;;;;;;4994222;28;20092;-70
2021/08/09 08:28:23;;;;;;;11.05;2.15;;;;;;;;;;5000932;28;20030;-70
2021/08/09 08:30:52;;;;;;;14.13;2.05;;;;;;;;;;4992880;28;20659;-70
2021/08/09 08:33:20;;;;;;;10.38;2.55;;;;;;;;;;5000907;28;20441;-70
2021/08/09 08:35:47;;;;;;;13.65;2.17;;;;;;;;;;5012430;28;20044;-70
2021/08/09 08:38:14;;;;;;;15.43;2.95;;;;;;;;;;5013397;28;20038;-71
2021/08/09 08:40:47;;;;;;;14.32;1.75;;;;;;;;;;4994130;28;20030;-70
2021/08/09 08:43:24;;;;;;;15.45;2.05;;;;;;;;;;4998869;28;20053;-70
2021/08/09 08:45:56;;;;;;;17.45;3.28;;;;;;;;;;5001012;28;20018;-70
2021/08/09 08:48:25;;;;;;;15.43;2.72;;;;;;;;;;5001402;28;20030;-70
2021/08/09 08:50:52;;;;;;;13.50;2.17;;;;;;;;;;5009278;28;20038;-70
2021/08/09 08:53:20;;;;;;;11.32;2.53;;;;;;;;;;4993182;28;20046;-71
2021/08/09 08:55:50;;;;;;;12.23;3.05;;;;;;;;;;4993872;28;20085;-71
2021/08/09 08:58:17;;;;;;;16.33;2.90;;;;;;;;;;4993198;28;20044;-71
2021/08/09 09:00:47;;;;;;;12.48;2.75;;;;;;;;;;5008650;28;20642;-71
2021/08/09 09:03:25;;;;;;;16.83;2.22;;;;;;;;;;5014516;28;20026;-71
2021/08/09 09:06:11;;;;;;;16.13;3.60;;;;;;;;;;5008657;28;20037;-71
2021/08/09 09:08:38;;;;;;;13.80;3.08;;;;;;;;;;5008570;28;20023;-71
2021/08/09 09:11:05;;;;;;;14.68;2.83;;;;;;;;;;4993501;28;20021;-71
2021/08/09 09:13:33;;;;;;;11.43;2.40;;;;;;;;;;4992403;28;20109;-71
2021/08/09 09:16:10;;;;;;;12.77;2.67;;;;;;;;;;5011140;28;20084;-70
2021/08/09 09:18:55;;;;;;;13.55;2.47;;;;;;;;;;5002792;28;20026;-71
2021/08/09 09:21:28;;;;;;;16.58;3.20;;;;;;;;;;4993072;28;20019;-72
2021/08/09 09:23:56;;;;;;;11.50;2.17;;;;;;;;;;4999351;28;20100;-71
2021/08/09 09:26:25;;;;;;;10.35;2.20;;;;;;;;;;4997981;28;20031;-71
2021/08/09 09:28:53;;;;;;;17.63;2.85;;;;;;;;;;5009416;28;20045;-70
2021/08/09 09:31:30;;;;;;;11.93;1.92;;;;;;;;;;4991887;28;20026;-71
2021/08/09 09:33:58;;;;;;;8.73;2.30;;;;;;;;;;5001347;28;20034;-70
2021/08/09 09:36:25;;;;;;;13.98;2.30;;;;;;;;;;4991226;28;20213;-71
2021/08/09 09:38:53;;;;;;;13.02;2.25;;;;;;;;;;4992132;28;20034;-71
2021/08/09 09:41:23;;;;;;;9.98;2.38;;;;;;;;;;5008050;28;20057;-72
2021/08/09 09:43:50;;;;;;;13.32;3.40;;;;;;;;;;4992822;28;20430;-70
2021/08/09 09:46:22;;;;;;;11.77;2.30;;;;;;;;;;5007741;28;20038;-71
2021/08/09 09:48:49;;;;;;;12.70;2.05;;;;;;;;;;4991203;28;20030;-71
2021/08/09 09:51:18;;;;;;;15.88;3.33;;;;;;;;;;4992263;28;20133;-71
2021/08/09 09:53:46;;;;;;;16.88;2.42;;;;;;;;;;4992314;28;20046;-71
2021/08/09 09:56:14;;;;;;;13.77;1.95;;;;;;;;;;5000506;28;20025;-71
2021/08/09 09:58:41;;;;;;;7.63;2.10;;;;;;;;;;4974300;28;20439;-69
2021/08/09 10:01:09;;;;;;;16.90;3.63;;;;;;;;;;4991760;28;20029;-70
2021/08/09 10:03:37;;;;;;;11.52;2.00;;;;;;;;;;4992395;28;20026;-71
2021/08/09 10:06:04;;;;;;;14.23;2.33;;;;;;;;;;4999149;28;20027;-70
2021/08/09 10:08:36;;;;;;;13.32;1.90;;;;;;;;;;4990032;28;20404;-71
2021/08/09 10:11:05;;;;;;;11.40;2.08;;;;;;;;;;4988917;28;20430;-70
2021/08/09 10:13:33;;;;;;;9.48;2.10;;;;;;;;;;4992618;28;20029;-71
2021/08/09 10:16:05;;;;;;;11.02;2.17;;;;;;;;;;4992606;28;20034;-70
2021/08/09 10:18:34;;;;;;;16.42;2.10;;;;;;;;;;4992914;28;20050;-69
2021/08/09 10:21:02;;;;;;;18.95;2.13;;;;;;;;;;4992207;28;20030;-69
2021/08/09 10:23:37;;;;;;;11.52;2.33;;;;;;;;;;4992010;28;20014;-69
2021/08/09 10:26:04;;;;;;;14.98;2.65;;;;;;;;;;4982492;28;20026;-69
2021/08/09 10:28:50;;;;;;;13.90;2.30;;;;;;;;;;4991122;28;20030;-70
2021/08/09 10:31:28;;;;;;;14.63;1.73;;;;;;;;;;4991809;28;20038;-70
2021/08/09 10:33:55;;;;;;;15.52;3.25;;;;;;;;;;4992291;28;20117;-70
2021/08/09 10:36:23;;;;;;;17.00;2.72;;;;;;;;;;4997240;28;20033;-69
2021/08/09 10:38:52;;;;;;;16.08;2.20;;;;;;;;;;4994379;28;20034;-70
2021/08/09 10:41:27;;;;;;;13.27;2.17;;;;;;;;;;4995714;28;20110;-69
2021/08/09 10:44:07;;;;;;;12.25;2.55;;;;;;;;;;5010630;28;20038;-70
2021/08/09 10:46:46;;;;;;;11.00;2.40;;;;;;;;;;4993117;28;20395;-70
2021/08/09 10:49:31;;;;;;;9.40;2.00;;;;;;;;;;5006970;28;20125;-71
2021/08/09 10:51:59;;;;;;;16.20;2.45;;;;;;;;;;5007056;28;20112;-70
2021/08/09 10:54:30;;;;;;;11.05;1.98;;;;;;;;;;5005089;28;20050;-70
2021/08/09 10:57:03;;;;;;;11.48;2.63;;;;;;;;;;4978713;28;21918;-69
2021/08/09 10:59:43;;;;;;;16.02;2.75;;;;;;;;;;5007076;28;20104;-70
2021/08/09 11:02:16;;;;;;;13.23;3.00;;;;;;;;;;4972951;28;20058;-69
2021/08/09 11:04:43;;;;;;;14.15;2.75;;;;;;;;;;4996061;28;20038;-69
2021/08/09 11:07:17;;;;;;;14.73;2.15;;;;;;;;;;4995512;28;20080;-71
2021/08/09 11:09:45;;;;;;;13.82;2.13;;;;;;;;;;4991771;28;20030;-69
2021/08/09 11:12:13;;;;;;;14.02;2.25;;;;;;;;;;4991061;28;20023;-69
2021/08/09 11:14:59;;;;;;;12.95;2.28;;;;;;;;;;4991538;28;20025;-69
2021/08/09 11:17:26;;;;;;;13.40;2.70;;;;;;;;;;4990969;28;20069;-70
2021/08/09 11:19:54;;;;;;;13.63;3.00;;;;;;;;;;4988514;28;20026;-69
2021/08/09 11:22:21;;;;;;;16.38;2.78;;;;;;;;;;4990166;28;20419;-70
2021/08/09 11:24:48;;;;;;;16.40;2.65;;;;;;;;;;4992616;28;20022;-69
2021/08/09 11:27:15;;;;;;;16.75;3.05;;;;;;;;;;4986835;28;20034;-68
2021/08/09 11:29:56;;;;;;;12.07;2.00;;;;;;;;;;4988371;28;20069;-69
2021/08/09 11:32:36;;;;;;;17.38;2.17;;;;;;;;;;4993022;28;20041;-69
2021/08/09 11:35:03;;;;;;;12.02;2.55;;;;;;;;;;5001275;28;20046;-69
2021/08/09 11:37:31;;;;;;;14.90;2.53;;;;;;;;;;4991358;28;20026;-69
2021/08/09 11:39:58;;;;;;;17.25;2.55;;;;;;;;;;4992500;28;20367;-69
2021/08/09 11:42:25;;;;;;;12.60;2.17;;;;;;;;;;5006573;28;20521;-69
2021/08/09 11:44:52;;;;;;;13.57;2.20;;;;;;;;;;4992686;28;20026;-70
2021/08/09 11:47:22;;;;;;;12.25;2.05;;;;;;;;;;5004090;28;20415;-70
2021/08/09 11:49:56;;;;;;;14.13;1.77;;;;;;;;;;4989262;28;20027;-69
2021/08/09 11:52:23;;;;;;;19.67;2.22;;;;;;;;;;5007126;28;20038;-70
2021/08/09 11:54:51;;;;;;;8.73;2.35;;;;;;;;;;5007039;28;20062;-70
2021/08/09 11:57:18;;;;;;;13.00;2.35;;;;;;;;;;4990619;28;20443;-69
2021/08/09 11:59:51;;;;;;;12.63;2.53;;;;;;;;;;4994551;28;20117;-69
2021/08/09 12:02:18;;;;;;;10.75;1.90;;;;;;;;;;4992485;28;20039;-70
2021/08/09 12:04:45;;;;;;;9.57;2.63;;;;;;;;;;5009007;28;20140;-70
2021/08/09 12:07:19;;;;;;;12.85;2.38;;;;;;;;;;5001721;28;20030;-69
2021/08/09 12:09:47;;;;;;;17.80;2.08;;;;;;;;;;4990602;28;20014;-70
2021/08/09 12:12:15;;;;;;;11.90;2.70;;;;;;;;;;4990163;28;20026;-69
2021/08/09 12:14:43;;;;;;;12.68;2.33;;;;;;;;;;5008454;28;20053;-70
2021/08/09 12:17:14;;;;;;;15.85;3.30;;;;;;;;;;4992456;28;20026;-70
2021/08/09 12:19:41;;;;;;;15.23;2.53;;;;;;;;;;4993328;28;20141;-70
2021/08/09 12:22:34;;;;;;;10.40;1.85;;;;;;;;;;5008713;28;20026;-70
2021/08/09 12:25:02;;;;;;;14.68;2.72;;;;;;;;;;4991948;28;20058;-71
2021/08/09 12:27:29;;;;;;;16.50;3.67;;;;;;;;;;4992628;28;20030;-69
2021/08/09 12:30:03;;;;;;;13.85;1.90;;;;;;;;;;4992040;28;20023;-70
2021/08/09 12:32:30;;;;;;;13.35;3.10;;;;;;;;;;4992653;28;20018;-69
2021/08/09 12:34:58;;;;;;;10.90;1.83;;;;;;;;;;4992605;28;20618;-70
2021/08/09 12:37:25;;;;;;;14.40;2.05;;;;;;;;;;4989788;28;20037;-70
2021/08/09 12:39:53;;;;;;;12.15;3.10;;;;;;;;;;5009055;28;20014;-69
2021/08/09 12:42:21;;;;;;;9.55;2.40;;;;;;;;;;4992903;28;20030;-70
2021/08/09 12:44:49;;;;;;;10.32;2.70;;;;;;;;;;4992649;28;20073;-70
2021/08/09 12:47:16;;;;;;;20.98;3.72;;;;;;;;;;4990548;28;20101;-69
2021/08/09 12:49:44;;;;;;;10.00;2.22;;;;;;;;;;4993091;28;20102;-69
2021/08/09 12:52:11;;;;;;;13.05;2.13;;;;;;;;;;4987656;28;20058;-69
2021/08/09 12:54:38;;;;;;;13.60;2.67;;;;;;;;;;4993282;28;20133;-70
2021/08/09 12:57:06;;;;;;;19.15;3.53;;;;;;;;;;4990581;28;20069;-69
2021/08/09 12:59:33;;;;;;;20.95;3.42;;;;;;;;;;4993773;28;20038;-69
2021/08/09 13:02:00;;;;;;;12.80;3.08;;;;;;;;;;4993639;28;20084;-70
2021/08/09 13:04:28;;;;;;;13.23;2.75;;;;;;;;;;4994494;28;20022;-70
2021/08/09 13:06:57;;;;;;;16.60;3.03;;;;;;;;;;4989202;28;20479;-69
2021/08/09 13:09:24;;;;;;;16.00;2.38;;;;;;;;;;4991204;28;20022;-70
2021/08/09 13:11:51;;;;;;;12.55;2.20;;;;;;;;;;4994444;28;20487;-70
2021/08/09 13:14:19;;;;;;;14.25;3.55;;;;;;;;;;5011134;28;20065;-70
2021/08/09 13:16:46;;;;;;;13.45;2.60;;;;;;;;;;4990611;28;20057;-69
2021/08/09 13:19:13;;;;;;;14.88;2.72;;;;;;;;;;5008228;28;20034;-70
2021/08/09 13:21:40;;;;;;;15.73;3.42;;;;;;;;;;4991529;28;20113;-69
2021/08/09 13:24:10;;;;;;;13.48;3.13;;;;;;;;;;4991997;28;20041;-70
2021/08/09 13:26:37;;;;;;;15.48;2.45;;;;;;;;;;5008347;28;20152;-70
2021/08/09 13:29:05;;;;;;;11.63;2.35;;;;;;;;;;4993360;28;20034;-68
2021/08/09 13:31:32;;;;;;;11.65;2.97;;;;;;;;;;4991575;28;20033;-69
2021/08/09 13:33:59;;;;;;;9.68;2.15;;;;;;;;;;4992741;28;20018;-69
2021/08/09 13:36:26;;;;;;;14.15;2.42;;;;;;;;;;4992905;28;20061;-69
2021/08/09 13:38:53;;;;;;;10.98;2.95;;;;;;;;;;4990483;28;20031;-70
2021/08/09 13:41:20;;;;;;;10.15;2.80;;;;;;;;;;5007666;28;20026;-69
2021/08/09 13:43:47;;;;;;;13.45;2.80;;;;;;;;;;4993126;28;20026;-69
2021/08/09 13:46:14;;;;;;;11.18;2.72;;;;;;;;;;4988198;28;20081;-69
2021/08/09 13:48:48;;;;;;;15.95;2.85;;;;;;;;;;4991612;28;20399;-69
2021/08/09 13:51:16;;;;;;;12.37;2.33;;;;;;;;;;4989616;28;20019;-69
2021/08/09 13:53:43;;;;;;;13.20;3.35;;;;;;;;;;4991268;28;20045;-70
2021/08/09 13:56:10;;;;;;;14.80;2.63;;;;;;;;;;4988877;28;20022;-70
2021/08/09 13:58:40;;;;;;;10.43;2.13;;;;;;;;;;4990558;28;20034;-70
2021/08/09 14:01:07;;;;;;;9.82;2.47;;;;;;;;;;4992224;28;20024;-70
2021/08/09 14:03:37;;;;;;;15.30;2.55;;;;;;;;;;4989872;28;20390;-70
2021/08/09 14:06:09;;;;;;;15.40;2.75;;;;;;;;;;4991390;28;20018;-69
2021/08/09 14:08:37;;;;;;;18.30;3.00;;;;;;;;;;4991880;28;20113;-70
2021/08/09 14:11:05;;;;;;;12.60;3.00;;;;;;;;;;4991149;28;20028;-70
2021/08/09 14:13:32;;;;;;;10.95;1.95;;;;;;;;;;4990074;28;20406;-69
2021/08/09 14:16:00;;;;;;;12.88;2.55;;;;;;;;;;4991562;28;20036;-69
2021/08/09 14:18:27;;;;;;;11.93;2.80;;;;;;;;;;4988677;28;20392;-69
2021/08/09 14:20:54;;;;;;;17.80;3.97;;;;;;;;;;4992140;28;20050;-69
2021/08/09 14:23:21;;;;;;;11.18;2.78;;;;;;;;;;4990763;28;20040;-68
2021/08/09 14:25:48;;;;;;;13.40;2.47;;;;;;;;;;4990855;28;20113;-69
2021/08/09 14:28:15;;;;;;;15.13;2.42;;;;;;;;;;4989377;28;20120;-69
2021/08/09 14:30:43;;;;;;;7.43;2.33;;;;;;;;;;4992949;28;20022;-69
2021/08/09 14:33:10;;;;;;;13.25;2.72;;;;;;;;;;4988889;28;20029;-69
2021/08/09 14:35:37;;;;;;;16.67;3.15;;;;;;;;;;4990455;28;20026;-69
2021/08/09 14:38:04;;;;;;;10.02;3.22;;;;;;;;;;5004100;28;20034;-70
2021/08/09 14:40:31;;;;;;;17.77;3.30;;;;;;;;;;5004873;28;20118;-70
2021/08/09 14:42:58;;;;;;;14.68;2.90;;;;;;;;;;4990299;28;20027;-69